Time;durP1;ratioP1;P1;durP2;ratioP2;P2;SDS_P1;SDS_P2;PMS_P1;PMS_P2;Temp;Humidity;BMP_temperature;BMP_pressure;BME280_temperature;BME280_humidity;BME280_pressure;Samples;Min_cycle;Max_cycle;Signal;HPM_P1;HPM_P2
2022/10/19 00:01:42;;;;;;;13.30;6.97;;;16.30;99.90;;;;;;4992510;28;20435;-65
2022/10/19 00:04:09;;;;;;;20.47;6.87;;;16.20;99.90;;;;;;5007997;28;20446;-64
2022/10/19 00:06:38;;;;;;;22.47;6.50;;;16.20;99.90;;;;;;5011978;28;20435;-64
2022/10/19 00:09:08;;;;;;;16.33;6.47;;;16.10;99.90;;;;;;4999610;28;20774;-64
2022/10/19 00:11:37;;;;;;;25.47;6.40;;;16.00;99.90;;;;;;5011360;28;20524;-64
2022/10/19 00:14:05;;;;;;;23.13;6.90;;;16.00;99.90;;;;;;5011992;28;20882;-64
2022/10/19 00:16:35;;;;;;;7.23;5.30;;;16.00;99.90;;;;;;5011105;28;20439;-64
2022/10/19 00:19:06;;;;;;;19.40;5.73;;;16.00;99.90;;;;;;5011824;28;20447;-65
2022/10/19 00:21:34;;;;;;;18.80;7.07;;;15.90;99.90;;;;;;4998522;28;20522;-64
2022/10/19 00:24:01;;;;;;;7.23;6.43;;;16.00;99.90;;;;;;5010730;28;20443;-64
2022/10/19 00:26:28;;;;;;;6.83;4.93;;;16.00;99.90;;;;;;5003223;28;20447;-64
2022/10/19 00:28:56;;;;;;;14.50;6.60;;;16.10;99.90;;;;;;4995663;28;20470;-64
2022/10/19 00:31:23;;;;;;;10.33;5.03;;;16.10;99.90;;;;;;5005593;28;20432;-64
2022/10/19 00:33:51;;;;;;;18.67;8.07;;;16.10;99.90;;;;;;5015273;28;20486;-64
2022/10/19 00:36:22;;;;;;;8.43;6.10;;;16.10;99.90;;;;;;5004940;28;20562;-65
2022/10/19 00:38:49;;;;;;;18.00;6.80;;;16.10;99.90;;;;;;4995331;28;20440;-65
2022/10/19 00:41:18;;;;;;;16.83;6.67;;;16.10;99.90;;;;;;5003870;28;20778;-65
2022/10/19 00:43:54;;;;;;;14.50;6.47;;;16.10;99.90;;;;;;5013791;28;20446;-64
2022/10/19 00:46:22;;;;;;;16.43;7.20;;;16.10;99.90;;;;;;5005843;28;20450;-65
2022/10/19 00:48:50;;;;;;;10.97;7.43;;;16.00;99.90;;;;;;4995540;28;20446;-64
2022/10/19 00:51:19;;;;;;;11.43;6.77;;;16.00;99.90;;;;;;5002552;28;20439;-65
2022/10/19 00:53:46;;;;;;;22.87;8.07;;;16.00;99.90;;;;;;5011437;28;20486;-65
2022/10/19 00:56:15;;;;;;;20.13;8.47;;;16.00;99.90;;;;;;5014958;28;20446;-64
2022/10/19 00:58:44;;;;;;;16.30;7.90;;;16.00;99.90;;;;;;5009440;28;20436;-65
2022/10/19 01:01:15;;;;;;;11.93;6.93;;;15.90;99.90;;;;;;4995156;28;20957;-64
2022/10/19 01:03:43;;;;;;;13.00;7.43;;;15.90;99.90;;;;;;5002198;28;20451;-65
2022/10/19 01:06:11;;;;;;;7.30;6.03;;;15.90;99.90;;;;;;5015104;28;20530;-65
2022/10/19 01:08:40;;;;;;;22.07;7.47;;;15.90;99.90;;;;;;5007580;28;20440;-65
2022/10/19 01:11:22;;;;;;;7.83;6.23;;;15.90;99.90;;;;;;4994890;28;20930;-65
2022/10/19 01:14:02;;;;;;;11.77;7.23;;;15.90;99.90;;;;;;4994205;28;20482;-64
2022/10/19 01:16:37;;;;;;;7.87;6.07;;;16.00;99.90;;;;;;4994757;28;20444;-64
2022/10/19 01:19:23;;;;;;;8.70;7.10;;;16.00;99.90;;;;;;5012892;28;20450;-64
2022/10/19 01:21:59;;;;;;;10.90;5.90;;;16.00;99.90;;;;;;5002862;28;20490;-65
2022/10/19 01:24:48;;;;;;;8.83;6.10;;;16.10;99.90;;;;;;5011660;28;20823;-64
2022/10/19 01:27:36;;;;;;;7.70;5.57;;;16.10;99.90;;;;;;5000087;28;20922;-65
2022/10/19 01:30:13;;;;;;;5.60;5.03;;;16.10;99.90;;;;;;4994776;28;20443;-65
2022/10/19 01:33:04;;;;;;;9.97;6.40;;;16.10;99.90;;;;;;5010274;28;20438;-65
2022/10/19 01:35:39;;;;;;;8.47;4.67;;;16.10;99.90;;;;;;4988948;28;20566;-65
2022/10/19 01:38:17;;;;;;;6.97;5.80;;;16.10;99.90;;;;;;4994639;28;20857;-64
2022/10/19 01:40:53;;;;;;;10.97;6.70;;;16.10;99.90;;;;;;4994530;28;20800;-65
2022/10/19 01:43:24;;;;;;;17.90;7.73;;;16.10;99.90;;;;;;5010209;28;20462;-64
2022/10/19 01:45:59;;;;;;;12.27;7.23;;;16.10;99.90;;;;;;4994305;28;20835;-69
2022/10/19 01:48:32;;;;;;;21.00;7.43;;;16.00;99.90;;;;;;4994045;28;20439;-64
2022/10/19 01:51:03;;;;;;;31.40;8.03;;;16.00;99.90;;;;;;4994183;28;20460;-65
2022/10/19 01:53:34;;;;;;;30.23;8.23;;;16.00;99.90;;;;;;5009183;28;20483;-64
2022/10/19 01:56:04;;;;;;;10.90;6.70;;;15.90;99.90;;;;;;4993981;28;20447;-66
2022/10/19 01:58:37;;;;;;;18.47;6.43;;;15.90;99.90;;;;;;4994185;28;20440;-64
2022/10/19 02:01:09;;;;;;;8.13;6.70;;;15.90;99.90;;;;;;4994220;28;21005;-65
2022/10/19 02:03:38;;;;;;;24.07;7.50;;;15.90;99.90;;;;;;4994853;28;20443;-65
2022/10/19 02:06:08;;;;;;;13.20;6.83;;;16.00;99.90;;;;;;4993965;28;20440;-65
2022/10/19 02:08:40;;;;;;;9.10;6.63;;;16.00;99.90;;;;;;5012391;28;20517;-65
2022/10/19 02:11:08;;;;;;;12.30;6.33;;;16.00;99.90;;;;;;5013583;28;20442;-66
2022/10/19 02:13:36;;;;;;;14.60;6.80;;;15.90;99.90;;;;;;4994398;28;20490;-64
2022/10/19 02:16:09;;;;;;;22.40;7.17;;;15.80;99.90;;;;;;4993866;28;20444;-65
2022/10/19 02:18:41;;;;;;;8.20;7.30;;;15.80;99.90;;;;;;4993823;28;20527;-64
2022/10/19 02:21:09;;;;;;;8.33;6.87;;;15.80;99.90;;;;;;5011236;28;20442;-64
2022/10/19 02:23:36;;;;;;;8.60;7.13;;;15.80;99.90;;;;;;5013401;28;20439;-65
2022/10/19 02:26:04;;;;;;;8.60;5.80;;;15.80;99.90;;;;;;4996654;28;20439;-65
2022/10/19 02:28:32;;;;;;;8.13;6.47;;;15.80;99.90;;;;;;4993428;28;20483;-65
2022/10/19 02:30:59;;;;;;;9.87;6.67;;;15.90;99.90;;;;;;4995339;28;20456;-64
2022/10/19 02:33:29;;;;;;;6.60;5.73;;;15.90;99.90;;;;;;4993182;28;20494;-64
2022/10/19 02:35:58;;;;;;;6.20;5.60;;;15.80;99.90;;;;;;5006629;28;20446;-64
2022/10/19 02:38:25;;;;;;;8.60;5.90;;;15.90;99.90;;;;;;5012814;28;20530;-65
2022/10/19 02:41:04;;;;;;;8.97;6.50;;;15.90;99.90;;;;;;4999731;28;20532;-65
2022/10/19 02:43:35;;;;;;;9.43;7.17;;;15.90;99.90;;;;;;4993499;28;20530;-66
2022/10/19 02:46:06;;;;;;;8.10;7.27;;;15.90;99.90;;;;;;5005918;28;20455;-65
2022/10/19 02:48:36;;;;;;;7.80;6.50;;;15.90;99.90;;;;;;5012947;28;20529;-65
2022/10/19 02:51:03;;;;;;;8.80;6.53;;;16.00;99.90;;;;;;4995742;28;20440;-65
2022/10/19 02:53:30;;;;;;;7.67;5.50;;;16.00;99.90;;;;;;4993004;28;20494;-65
2022/10/19 02:55:57;;;;;;;12.43;6.93;;;16.00;99.90;;;;;;5008079;28;20435;-65
2022/10/19 02:58:25;;;;;;;7.33;6.23;;;16.00;99.90;;;;;;5012549;28;20437;-65
2022/10/19 03:00:52;;;;;;;10.30;6.40;;;16.00;99.90;;;;;;4998243;28;20467;-65
2022/10/19 03:03:19;;;;;;;12.53;6.90;;;16.00;99.90;;;;;;4992999;28;20860;-69
2022/10/19 03:05:48;;;;;;;13.93;5.60;;;16.00;99.90;;;;;;5004688;28;20436;-65
2022/10/19 03:08:15;;;;;;;11.60;5.80;;;16.00;99.90;;;;;;5012243;28;20453;-65
2022/10/19 03:10:42;;;;;;;6.67;5.40;;;16.00;99.90;;;;;;5000526;28;20454;-65
2022/10/19 03:13:09;;;;;;;8.50;5.50;;;16.00;99.90;;;;;;4992973;28;20435;-65
2022/10/19 03:15:36;;;;;;;10.03;5.80;;;16.00;99.90;;;;;;5005615;28;20893;-66
2022/10/19 03:18:03;;;;;;;9.03;5.50;;;16.00;99.90;;;;;;5012654;28;20430;-65
2022/10/19 03:20:30;;;;;;;10.93;5.03;;;16.00;99.90;;;;;;4999712;28;20452;-64
2022/10/19 03:22:59;;;;;;;6.77;5.77;;;16.00;99.90;;;;;;4992654;28;20868;-64
2022/10/19 03:25:26;;;;;;;8.57;5.70;;;16.00;99.90;;;;;;5003429;28;20819;-65
2022/10/19 03:27:53;;;;;;;10.23;5.77;;;16.00;99.90;;;;;;5012052;28;20439;-65
2022/10/19 03:30:20;;;;;;;13.00;6.60;;;16.00;99.90;;;;;;5000985;28;20447;-65
2022/10/19 03:32:47;;;;;;;33.40;6.40;;;16.00;99.90;;;;;;4992853;28;20447;-65
2022/10/19 03:35:15;;;;;;;6.93;5.73;;;15.90;99.90;;;;;;5001451;28;20481;-66
2022/10/19 03:37:42;;;;;;;10.30;5.87;;;15.90;99.90;;;;;;5012221;28;20970;-65
2022/10/19 03:40:11;;;;;;;11.83;5.30;;;15.90;99.90;;;;;;5003487;28;20527;-65
2022/10/19 03:42:38;;;;;;;21.30;6.10;;;15.90;99.90;;;;;;4992649;28;20511;-65
2022/10/19 03:45:06;;;;;;;10.73;5.50;;;15.90;99.90;;;;;;4998308;28;20492;-65
2022/10/19 03:47:33;;;;;;;8.87;6.50;;;15.90;99.90;;;;;;5012233;28;20479;-65
2022/10/19 03:50:01;;;;;;;9.90;5.87;;;15.90;99.90;;;;;;5006062;28;20477;-64
2022/10/19 03:52:28;;;;;;;9.33;5.40;;;15.80;99.90;;;;;;5000576;28;20976;-66
2022/10/19 03:54:55;;;;;;;8.03;4.60;;;15.80;99.90;;;;;;5011960;28;20513;-65
2022/10/19 03:57:24;;;;;;;6.50;4.20;;;15.80;99.90;;;;;;5011570;28;20935;-64
2022/10/19 03:59:51;;;;;;;10.60;4.90;;;15.80;99.90;;;;;;5004337;28;20436;-64
2022/10/19 04:02:18;;;;;;;5.97;5.10;;;15.80;99.90;;;;;;4996519;28;20444;-65
2022/10/19 04:04:45;;;;;;;8.23;5.00;;;15.80;99.90;;;;;;5005407;28;20521;-65
2022/10/19 04:07:12;;;;;;;11.33;5.40;;;15.80;99.90;;;;;;5015946;28;20778;-65
2022/10/19 04:09:40;;;;;;;5.23;4.33;;;15.80;99.90;;;;;;5007589;28;20435;-65
2022/10/19 04:12:07;;;;;;;7.23;4.73;;;15.80;99.90;;;;;;4996388;28;20439;-65
2022/10/19 04:14:37;;;;;;;5.57;4.97;;;15.90;99.90;;;;;;5002702;28;20486;-64
2022/10/19 04:17:09;;;;;;;7.57;5.13;;;15.80;99.90;;;;;;5015971;28;20438;-65
2022/10/19 04:19:36;;;;;;;6.40;5.43;;;15.80;99.90;;;;;;5008345;28;20428;-64
2022/10/19 04:22:04;;;;;;;6.10;5.30;;;15.80;99.90;;;;;;4996268;28;20469;-65
2022/10/19 04:24:31;;;;;;;6.60;5.90;;;15.80;99.90;;;;;;5000156;28;21246;-65
2022/10/19 04:26:58;;;;;;;6.23;5.63;;;15.80;99.90;;;;;;5015663;28;20464;-66
2022/10/19 04:29:28;;;;;;;6.73;5.10;;;15.80;99.90;;;;;;5013236;28;20443;-65
2022/10/19 04:31:57;;;;;;;8.23;6.13;;;15.80;99.90;;;;;;5015718;28;20442;-65
2022/10/19 04:34:24;;;;;;;7.57;5.33;;;15.80;99.90;;;;;;5009321;28;20482;-64
2022/10/19 04:36:53;;;;;;;8.10;5.37;;;15.90;99.90;;;;;;4995807;28;20479;-64
2022/10/19 04:39:20;;;;;;;6.47;4.70;;;15.90;99.90;;;;;;4995321;28;20950;-65
2022/10/19 04:41:47;;;;;;;7.90;5.43;;;15.90;99.90;;;;;;4994454;28;20448;-64
2022/10/19 04:44:14;;;;;;;8.00;6.17;;;15.90;99.90;;;;;;5012401;28;20452;-65
2022/10/19 04:46:41;;;;;;;6.67;5.50;;;15.90;99.90;;;;;;5013752;28;20442;-64
2022/10/19 04:49:10;;;;;;;14.53;6.93;;;15.90;99.90;;;;;;5012889;28;20815;-65
2022/10/19 04:51:37;;;;;;;11.30;6.43;;;15.90;99.90;;;;;;5013542;28;20843;-65
2022/10/19 04:54:05;;;;;;;10.30;6.80;;;15.90;99.90;;;;;;5013246;28;20488;-65
2022/10/19 04:56:32;;;;;;;10.53;6.60;;;15.90;99.90;;;;;;5013219;28;20450;-65
2022/10/19 04:59:00;;;;;;;10.83;7.27;;;;;;;;;;5006119;28;20964;-65
2022/10/19 05:01:29;;;;;;;14.40;7.50;;;;;;;;;;5012975;28;20971;-65
2022/10/19 05:03:57;;;;;;;18.90;8.30;;;;;;;;;;5013428;28;20467;-65
2022/10/19 05:06:26;;;;;;;15.83;7.20;;;;;;;;;;5013306;28;20450;-64
2022/10/19 05:08:54;;;;;;;12.10;7.87;;;;;;;;;;5012781;28;20439;-65
2022/10/19 05:11:21;;;;;;;9.03;7.00;;;;;;;;;;5007548;28;20489;-66
2022/10/19 05:13:49;;;;;;;12.20;7.00;;;;;;;;;;5008310;28;20941;-65
2022/10/19 05:16:18;;;;;;;12.07;9.60;;;;;;;;;;5012912;28;20439;-65
2022/10/19 05:18:47;;;;;;;15.80;9.13;;;;;;;;;;5011995;28;20447;-65
2022/10/19 05:21:15;;;;;;;18.27;8.10;;;;;;;;;;5009483;28;20466;-65
2022/10/19 05:23:44;;;;;;;14.60;8.37;;;;;;;;;;5013116;28;20446;-65
2022/10/19 05:26:13;;;;;;;10.00;7.50;;;;;;;;;;5011661;28;20436;-66
2022/10/19 05:28:40;;;;;;;12.23;7.43;;;;;;;;;;5008818;28;20784;-65
2022/10/19 05:31:09;;;;;;;13.23;8.77;;;;;;;;;;5012166;28;20450;-65
2022/10/19 05:33:37;;;;;;;18.37;7.80;;;;;;;;;;5013180;28;20451;-65
2022/10/19 05:36:12;;;;;;;20.13;9.23;;;;;;;;;;5010759;28;21019;-65
2022/10/19 05:38:39;;;;;;;14.90;7.40;;;;;;;;;;5013085;28;20553;-65
2022/10/19 05:41:08;;;;;;;11.17;6.80;;;;;;;;;;5012899;28;20439;-65
2022/10/19 05:43:35;;;;;;;10.50;6.43;;;;;;;;;;5012916;28;20494;-66
2022/10/19 05:46:06;;;;;;;12.90;6.73;;;;;;;;;;5013119;28;20443;-65
2022/10/19 05:48:33;;;;;;;12.50;8.00;;;;;;;;;;5012427;28;20435;-65
2022/10/19 05:51:01;;;;;;;9.27;7.13;;;;;;;;;;5012670;28;20444;-65
2022/10/19 05:53:28;;;;;;;10.27;7.03;;;;;;;;;;5008871;28;20447;-65
2022/10/19 05:55:56;;;;;;;9.73;6.10;;;;;;;;;;5012579;28;20499;-64
2022/10/19 05:58:24;;;;;;;10.47;7.10;;;;;;;;;;5012763;28;20582;-64
2022/10/19 06:00:52;;;;;;;15.33;7.77;;;;;;;;;;5007781;28;20448;-65
2022/10/19 06:03:19;;;;;;;9.90;7.07;;;;;;;;;;5009354;28;20842;-65
2022/10/19 06:05:46;;;;;;;10.27;6.60;;;;;;;;;;5009069;28;20493;-65
2022/10/19 06:08:14;;;;;;;12.90;6.80;;;;;;;;;;5011325;28;20439;-66
2022/10/19 06:10:41;;;;;;;18.30;7.47;;;;;;;;;;5009191;28;20520;-65
2022/10/19 06:13:09;;;;;;;12.30;7.67;;;;;;;;;;5012548;28;20832;-66
2022/10/19 06:15:39;;;;;;;12.90;7.10;;;;;;;;;;5011635;28;20471;-65
2022/10/19 06:18:06;;;;;;;13.40;6.90;;;;;;;;;;5011244;28;20435;-65
2022/10/19 06:20:35;;;;;;;14.07;7.20;;;;;;;;;;5011401;28;20514;-65
2022/10/19 06:23:02;;;;;;;9.27;7.27;;;;;;;;;;5010737;28;20985;-65
2022/10/19 06:25:30;;;;;;;13.30;7.80;;;;;;;;;;5011059;28;20533;-65
2022/10/19 06:27:57;;;;;;;13.13;7.87;;;;;;;;;;5011887;28;20948;-64
2022/10/19 06:30:25;;;;;;;9.93;8.20;;;;;;;;;;5009401;28;21967;-65
2022/10/19 06:32:54;;;;;;;10.93;6.90;;;;;;;;;;5009075;28;20489;-65
2022/10/19 06:35:21;;;;;;;14.30;7.87;;;;;;;;;;5007265;28;20505;-65
2022/10/19 06:37:49;;;;;;;15.57;8.60;;;;;;;;;;5011882;28;20474;-64
2022/10/19 06:40:17;;;;;;;9.00;6.80;;;;;;;;;;5010772;28;21009;-64
2022/10/19 06:42:44;;;;;;;9.20;7.37;;;;;;;;;;5000718;28;20468;-64
2022/10/19 06:45:12;;;;;;;15.37;8.50;;;;;;;;;;4999106;28;20442;-65
2022/10/19 06:47:39;;;;;;;13.27;8.07;;;;;;;;;;4998386;28;20487;-65
2022/10/19 06:50:08;;;;;;;13.30;7.37;;;;;;;;;;5005257;28;20493;-66
2022/10/19 06:52:36;;;;;;;11.37;7.80;;;;;;;;;;5013340;28;20428;-65
2022/10/19 06:55:04;;;;;;;10.57;6.87;;;;;;;;;;5008542;28;20483;-65
2022/10/19 06:57:31;;;;;;;10.90;6.80;;;;;;;;;;5012145;28;20864;-65
2022/10/19 06:59:59;;;;;;;9.80;7.07;;;;;;;;;;5012293;28;20461;-64
2022/10/19 07:02:26;;;;;;;8.63;7.37;;;;;;;;;;5012545;28;20810;-64
2022/10/19 07:04:53;;;;;;;12.43;8.57;;;;;;;;;;5011574;28;20446;-66
2022/10/19 07:07:22;;;;;;;12.83;8.70;;;;;;;;;;5011730;28;20782;-65
2022/10/19 07:09:49;;;;;;;12.57;7.33;;;;;;;;;;5011870;28;20569;-64
2022/10/19 07:12:16;;;;;;;10.37;6.90;;;;;;;;;;5011820;28;20451;-65
2022/10/19 07:14:44;;;;;;;12.60;7.30;;;;;;;;;;5011834;28;20568;-65
2022/10/19 07:17:12;;;;;;;14.93;8.73;;;;;;;;;;5011692;28;20442;-65
2022/10/19 07:19:39;;;;;;;14.13;9.30;;;;;;;;;;5011790;28;20455;-65
2022/10/19 07:22:06;;;;;;;10.70;7.60;;;;;;;;;;5012210;28;20540;-65
2022/10/19 07:24:35;;;;;;;13.83;8.20;;;;;;;;;;5007635;28;20442;-65
2022/10/19 07:27:02;;;;;;;9.90;6.67;;;;;;;;;;5011576;28;20497;-65
2022/10/19 07:29:30;;;;;;;14.10;7.07;;;;;;;;;;5012079;28;20443;-65
2022/10/19 07:31:57;;;;;;;12.70;7.03;;;;;;;;;;5012068;28;20443;-64
2022/10/19 07:34:24;;;;;;;9.50;6.30;;;;;;;;;;5013459;28;20450;-65
2022/10/19 07:36:53;;;;;;;9.37;7.30;;;;;;;;;;5015245;28;20494;-65
2022/10/19 07:39:21;;;;;;;12.13;8.00;;;;;;;;;;5015938;28;20542;-65
2022/10/19 07:41:49;;;;;;;9.63;6.30;;;;;;;;;;5015854;28;20455;-65
2022/10/19 07:44:17;;;;;;;14.40;7.07;;;;;;;;;;5015359;28;20448;-64
2022/10/19 07:46:44;;;;;;;15.13;8.00;;;;;;;;;;5015321;28;20836;-65
2022/10/19 07:49:15;;;;;;;11.60;6.60;;;;;;;;;;5015935;28;20440;-65
2022/10/19 07:51:42;;;;;;;20.87;8.23;;;;;;;;;;5012230;28;20466;-65
2022/10/19 07:54:09;;;;;;;13.43;7.80;;;;;;;;;;5015523;28;20443;-65
2022/10/19 07:56:37;;;;;;;12.57;6.80;;;;;;;;;;5015163;28;20492;-65
2022/10/19 07:59:05;;;;;;;19.00;9.70;;;;;;;;;;5015703;28;20446;-65
2022/10/19 08:01:35;;;;;;;15.60;8.87;;;;;;;;;;5015493;28;20439;-65
2022/10/19 08:04:03;;;;;;;17.13;9.13;;;;;;;;;;5015677;28;20436;-65
2022/10/19 08:06:30;;;;;;;14.93;8.50;;;;;;;;;;5015210;28;20445;-65
2022/10/19 08:08:57;;;;;;;15.90;9.00;;;;;;;;;;5015072;28;20440;-65
2022/10/19 08:11:26;;;;;;;17.40;9.63;;;;;;;;;;5015229;28;20447;-65
2022/10/19 08:13:53;;;;;;;22.00;10.90;;;;;;;;;;5014651;28;20953;-64
2022/10/19 08:16:28;;;;;;;23.20;10.17;;;;;;;;;;5014980;28;20539;-65
2022/10/19 08:18:57;;;;;;;22.63;10.20;;;;;;;;;;5014575;28;20478;-65
2022/10/19 08:21:25;;;;;;;16.43;9.70;;;;;;;;;;5014688;28;20440;-65
2022/10/19 08:23:52;;;;;;;18.90;8.73;;;;;;;;;;5014612;28;20511;-65
2022/10/19 08:26:20;;;;;;;23.00;11.40;;;;;;;;;;5015041;28;20453;-64
2022/10/19 08:28:47;;;;;;;16.53;12.67;;;;;;;;;;5013140;28;20974;-65
2022/10/19 08:31:16;;;;;;;17.77;9.97;;;;;;;;;;5014180;28;20452;-65
2022/10/19 08:33:45;;;;;;;21.10;9.60;;;;;;;;;;5014402;28;20444;-64
2022/10/19 08:36:13;;;;;;;16.70;9.60;;;;;;;;;;5013995;28;20500;-65
2022/10/19 08:38:43;;;;;;;20.60;10.30;;;;;;;;;;5014837;28;20437;-66
2022/10/19 08:41:18;;;;;;;13.50;8.83;;;;;;;;;;5014914;28;20544;-65
2022/10/19 08:43:53;;;;;;;16.70;9.10;;;;;;;;;;5014266;28;20456;-65
2022/10/19 08:46:25;;;;;;;15.17;9.37;;;;;;;;;;5014091;28;20501;-65
2022/10/19 08:48:54;;;;;;;24.20;11.63;;;;;;;;;;5013968;28;20557;-65
2022/10/19 08:51:21;;;;;;;19.67;10.27;;;;;;;;;;5014589;28;20568;-65
2022/10/19 08:53:53;;;;;;;22.50;11.20;;;;;;;;;;5014250;28;20511;-65
2022/10/19 08:56:25;;;;;;;23.67;11.43;;;;;;;;;;5013858;28;20811;-64
2022/10/19 08:59:03;;;;;;;24.60;11.50;;;;;;;;;;5014288;28;20445;-65
2022/10/19 09:01:36;;;;;;;21.03;11.37;;;;;;;;;;5014142;28;20924;-65
2022/10/19 09:04:06;;;;;;;22.70;12.70;;;;;;;;;;5014700;28;20505;-65
2022/10/19 09:06:38;;;;;;;15.90;10.77;;;;;;;;;;5014412;28;20441;-65
2022/10/19 09:09:05;;;;;;;20.07;11.20;;;;;;;;;;5014220;28;20929;-65
2022/10/19 09:11:35;;;;;;;18.23;11.17;;;;;;;;;;5014281;28;20452;-65
2022/10/19 09:14:05;;;;;;;18.70;10.40;;;;;;;;;;5014381;28;20449;-65
2022/10/19 09:16:34;;;;;;;20.60;12.83;;;;;;;;;;5013807;28;20516;-65
2022/10/19 09:19:01;;;;;;;17.30;10.97;;;;;;;;;;5014511;28;20434;-65
2022/10/19 09:21:42;;;;;;;17.80;11.50;;;;;;;;;;5014213;28;20457;-64
2022/10/19 09:24:16;;;;;;;23.47;12.20;;;;;;;;;;5014041;28;20446;-65
2022/10/19 09:26:50;;;;;;;26.03;11.23;;;;;;;;;;5013692;28;20576;-65
2022/10/19 09:29:20;;;;;;;16.20;11.20;;;;;;;;;;5014036;28;20437;-65
2022/10/19 09:31:50;;;;;;;19.93;11.40;;;;;;;;;;5014020;28;20840;-65
2022/10/19 09:34:26;;;;;;;18.80;10.30;;;;;;;;;;5013914;28;20841;-65
2022/10/19 09:36:56;;;;;;;18.70;12.20;;;;;;;;;;5013089;28;20500;-64
2022/10/19 09:39:27;;;;;;;15.40;11.97;;;;;;;;;;5013603;28;20529;-66
2022/10/19 09:41:56;;;;;;;21.50;14.27;;;;;;;;;;5013670;28;20512;-65
2022/10/19 09:44:24;;;;;;;20.23;11.60;;;15.90;99.90;;;;;;5013669;28;20449;-66
2022/10/19 09:46:57;;;;;;;19.07;12.90;;;17.40;99.90;;;;;;5013353;28;20438;-64
2022/10/19 09:49:40;;;;;;;15.80;10.70;;;17.40;99.90;;;;;;5013511;28;20458;-65
2022/10/19 09:52:30;;;;;;;16.43;10.07;;;17.40;99.90;;;;;;5010654;28;20940;-65
2022/10/19 09:55:02;;;;;;;21.73;11.80;;;17.40;99.90;;;;;;5013013;28;20507;-65
2022/10/19 09:57:31;;;;;;;17.63;11.00;;;17.50;99.90;;;;;;5011445;28;20484;-65
2022/10/19 09:59:58;;;;;;;15.97;11.57;;;17.60;99.60;;;;;;5013255;28;20775;-65
2022/10/19 10:02:30;;;;;;;16.40;8.77;;;17.70;99.60;;;;;;5013293;28;20994;-65
2022/10/19 10:05:05;;;;;;;15.33;11.33;;;17.80;99.80;;;;;;5012929;28;20445;-65
2022/10/19 10:07:37;;;;;;;14.27;9.83;;;17.80;99.70;;;;;;5013149;28;20450;-64
2022/10/19 10:10:11;;;;;;;16.90;11.27;;;17.80;99.60;;;;;;5013407;28;20433;-65
2022/10/19 10:12:40;;;;;;;21.27;11.37;;;17.90;99.50;;;;;;5012921;28;20524;-66
2022/10/19 10:15:08;;;;;;;14.60;10.73;;;17.90;99.40;;;;;;5012692;28;21006;-66
2022/10/19 10:17:37;;;;;;;12.47;10.30;;;18.00;99.60;;;;;;5012913;28;20497;-65
2022/10/19 10:20:22;;;;;;;15.33;10.40;;;18.00;99.50;;;;;;5013149;28;20454;-65
2022/10/19 10:22:57;;;;;;;13.93;10.17;;;18.10;98.80;;;;;;5011595;28;20525;-65
2022/10/19 10:25:27;;;;;;;14.00;8.10;;;18.20;99.10;;;;;;5011572;28;20514;-65
2022/10/19 10:27:59;;;;;;;10.93;8.30;;;18.30;99.00;;;;;;5012213;28;20559;-65
2022/10/19 10:30:29;;;;;;;10.80;7.80;;;18.40;98.70;;;;;;5012598;28;20925;-65
2022/10/19 10:32:56;;;;;;;11.10;8.50;;;18.50;98.30;;;;;;5012880;28;20517;-65
2022/10/19 10:35:28;;;;;;;15.30;10.23;;;18.60;97.60;;;;;;5012554;28;20451;-66
2022/10/19 10:38:08;;;;;;;12.30;8.43;;;18.60;97.70;;;;;;5011923;28;20876;-65
2022/10/19 10:40:36;;;;;;;11.20;8.70;;;18.60;97.40;;;;;;5011165;28;20438;-66
2022/10/19 10:43:07;;;;;;;12.27;8.30;;;18.50;97.20;;;;;;5012188;28;20792;-65
2022/10/19 10:45:41;;;;;;;12.37;8.80;;;18.50;97.40;;;;;;5010771;28;20447;-65
2022/10/19 10:48:23;;;;;;;11.50;8.30;;;18.40;97.50;;;;;;5011117;28;20453;-65
2022/10/19 10:50:51;;;;;;;12.70;8.80;;;18.50;97.80;;;;;;5012172;28;20441;-65
2022/10/19 10:53:47;;;;;;;12.33;8.80;;;18.40;97.80;;;;;;5012564;28;20527;-65
2022/10/19 10:56:24;;;;;;;12.30;9.70;;;18.40;97.80;;;;;;4981923;28;20490;-65
2022/10/19 10:58:57;;;;;;;12.77;10.00;;;18.40;97.70;;;;;;5010708;28;20524;-65
2022/10/19 11:01:28;;;;;;;14.77;11.00;;;18.50;97.80;;;;;;5012356;28;20438;-65
2022/10/19 11:04:01;;;;;;;14.53;11.60;;;18.50;97.80;;;;;;5012360;28;20447;-65
2022/10/19 11:06:29;;;;;;;12.60;10.40;;;18.50;97.80;;;;;;5009412;28;20489;-65
2022/10/19 11:09:07;;;;;;;13.10;9.37;;;18.50;97.90;;;;;;5011726;28;20513;-65
2022/10/19 11:11:39;;;;;;;14.90;10.80;;;18.50;98.20;;;;;;5009763;28;20500;-65
2022/10/19 11:14:24;;;;;;;16.97;12.03;;;18.60;98.30;;;;;;5011511;28;20450;-66
2022/10/19 11:16:54;;;;;;;18.60;11.70;;;18.60;97.70;;;;;;5009394;28;20486;-65
2022/10/19 11:19:24;;;;;;;15.83;10.70;;;18.60;96.70;;;;;;5010742;28;20441;-65
2022/10/19 11:22:00;;;;;;;15.90;11.07;;;18.60;96.50;;;;;;5007535;28;20521;-65
2022/10/19 11:24:40;;;;;;;16.60;11.47;;;18.70;96.50;;;;;;5007532;28;20458;-65
2022/10/19 11:27:22;;;;;;;16.20;11.60;;;18.70;96.70;;;;;;5007916;28;20500;-65
2022/10/19 11:30:08;;;;;;;15.20;10.60;;;18.60;96.60;;;;;;5011473;28;20482;-65
2022/10/19 11:32:45;;;;;;;14.87;11.23;;;18.60;96.80;;;;;;5008954;28;20450;-64
2022/10/19 11:35:27;;;;;;;12.00;9.43;;;18.70;96.60;;;;;;5010410;28;20501;-65
2022/10/19 11:38:05;;;;;;;11.80;9.13;;;18.70;96.80;;;;;;5010630;28;20505;-65
2022/10/19 11:40:38;;;;;;;14.10;11.27;;;18.70;96.40;;;;;;5007997;28;20439;-65
2022/10/19 11:43:12;;;;;;;12.30;9.47;;;18.80;96.70;;;;;;5011263;28;20470;-65
2022/10/19 11:45:51;;;;;;;12.50;9.10;;;18.90;96.40;;;;;;5008706;28;20444;-65
2022/10/19 11:48:39;;;;;;;12.90;9.73;;;19.00;95.90;;;;;;5011046;28;20504;-65
2022/10/19 11:51:16;;;;;;;10.70;8.57;;;18.90;95.20;;;;;;5004342;28;20834;-69
2022/10/19 11:53:56;;;;;;;12.37;8.73;;;19.00;95.30;;;;;;5009138;28;20470;-66
2022/10/19 11:56:31;;;;;;;13.13;9.63;;;19.00;95.70;;;;;;5010665;28;21074;-65
2022/10/19 11:59:05;;;;;;;11.20;9.43;;;19.10;95.40;;;;;;5011166;28;20454;-65
2022/10/19 12:01:43;;;;;;;11.90;9.67;;;19.10;95.00;;;;;;5011878;28;20978;-65
2022/10/19 12:04:29;;;;;;;9.10;8.17;;;19.10;94.60;;;;;;5008956;28;20441;-66
2022/10/19 12:07:04;;;;;;;14.00;8.33;;;19.20;94.70;;;;;;5011321;28;20521;-65
2022/10/19 12:09:42;;;;;;;11.00;7.40;;;19.30;94.80;;;;;;5011809;28;20496;-65
2022/10/19 12:12:25;;;;;;;9.00;6.87;;;19.40;94.20;;;;;;5011382;28;20450;-65
2022/10/19 12:14:56;;;;;;;11.57;8.07;;;19.40;93.50;;;;;;5011766;28;20442;-65
2022/10/19 12:17:28;;;;;;;7.60;6.10;;;19.40;93.30;;;;;;5011123;28;20483;-65
2022/10/19 12:19:58;;;;;;;11.03;6.73;;;19.40;93.50;;;;;;5012546;28;20430;-65
2022/10/19 12:22:28;;;;;;;10.00;6.60;;;19.40;93.80;;;;;;5015404;28;20451;-65
2022/10/19 12:24:58;;;;;;;10.20;6.63;;;19.40;93.80;;;;;;5015229;28;20959;-65
2022/10/19 12:27:31;;;;;;;8.77;7.33;;;19.40;93.30;;;;;;5014816;28;20932;-65
2022/10/19 12:30:05;;;;;;;8.13;6.37;;;19.40;93.00;;;;;;5015194;28;20435;-65
2022/10/19 12:32:39;;;;;;;8.00;6.63;;;19.40;92.80;;;;;;5014844;28;20470;-65
2022/10/19 12:35:21;;;;;;;8.10;7.27;;;19.40;93.00;;;;;;5015272;28;20446;-65
2022/10/19 12:37:55;;;;;;;11.53;5.97;;;19.30;93.10;;;;;;5012137;28;20498;-65
2022/10/19 12:40:32;;;;;;;8.77;6.40;;;19.40;92.90;;;;;;5015031;28;20439;-66
2022/10/19 12:43:07;;;;;;;8.50;7.03;;;19.30;92.80;;;;;;5014898;28;20446;-65
2022/10/19 12:45:36;;;;;;;7.70;6.50;;;19.20;92.60;;;;;;5014872;28;20488;-65
2022/10/19 12:48:24;;;;;;;10.40;6.50;;;19.30;92.70;;;;;;5014375;28;20443;-65
2022/10/19 12:51:12;;;;;;;8.77;6.13;;;19.40;92.60;;;;;;5012204;28;20435;-65
2022/10/19 12:53:43;;;;;;;12.13;6.40;;;19.50;92.50;;;;;;5014183;28;20476;-65
2022/10/19 12:56:15;;;;;;;10.50;5.80;;;19.60;92.50;;;;;;5014067;28;21000;-65
2022/10/19 12:58:51;;;;;;;11.10;6.83;;;19.70;92.40;;;;;;5014547;28;20443;-66
2022/10/19 13:01:22;;;;;;;7.30;6.33;;;19.90;92.80;;;;;;5011964;28;20793;-65
2022/10/19 13:03:52;;;;;;;11.00;6.50;;;20.10;92.60;;;;;;5014392;28;20484;-65
2022/10/19 13:06:31;;;;;;;10.07;8.13;;;20.20;91.80;;;;;;5012180;28;20919;-65
2022/10/19 13:09:01;;;;;;;7.87;6.20;;;20.10;91.30;;;;;;5013502;28;20439;-65
2022/10/19 13:11:28;;;;;;;10.90;6.90;;;20.10;91.60;;;;;;5014185;28;20500;-66
2022/10/19 13:14:06;;;;;;;10.80;6.50;;;20.00;90.50;;;;;;5014162;28;20509;-65
2022/10/19 13:17:05;;;;;;;8.27;6.50;;;19.90;90.50;;;;;;5013984;28;20526;-65
2022/10/19 13:19:32;;;;;;;9.40;5.90;;;19.90;90.90;;;;;;5013790;28;20493;-65
2022/10/19 13:22:25;;;;;;;9.03;5.93;;;20.00;91.10;;;;;;5014103;28;20446;-65
2022/10/19 13:25:25;;;;;;;9.53;7.07;;;20.00;91.00;;;;;;5014264;28;21214;-65
2022/10/19 13:27:53;;;;;;;11.30;6.80;;;19.80;90.50;;;;;;5013277;28;20954;-63
2022/10/19 13:31:00;;;;;;;10.17;8.23;;;19.80;90.80;;;;;;5011707;28;20447;-63
2022/10/19 13:33:49;;;;;;;10.27;8.03;;;19.70;91.10;;;;;;5012757;28;20804;-63
2022/10/19 13:36:17;;;;;;;7.90;6.90;;;19.70;91.50;;;;;;5012449;28;20536;-63